createdAt,value
2019-03-27T00:00:37.156Z,5.50
2019-03-27T00:03:06.620Z,7.28
2019-03-27T00:05:35.980Z,11.00
2019-03-27T00:08:05.290Z,7.97
2019-03-27T00:10:34.843Z,6.25
2019-03-27T00:13:04.335Z,8.60
2019-03-27T00:15:33.715Z,6.67
2019-03-27T00:18:03.235Z,8.25
2019-03-27T00:20:32.809Z,6.58
2019-03-27T00:23:02.337Z,5.58
2019-03-27T00:25:31.662Z,4.30
2019-03-27T00:28:01.265Z,7.92
2019-03-27T00:30:30.656Z,6.22
2019-03-27T00:32:59.949Z,6.87
2019-03-27T00:35:29.562Z,9.60
2019-03-27T00:37:58.875Z,5.58
2019-03-27T00:40:28.395Z,5.80
2019-03-27T00:42:57.698Z,6.53
2019-03-27T00:45:27.362Z,5.67
2019-03-27T00:47:56.686Z,5.33
2019-03-27T00:50:25.954Z,4.05
2019-03-27T00:52:55.255Z,6.12
2019-03-27T00:55:24.542Z,5.87
2019-03-27T00:57:53.851Z,4.12
2019-03-27T01:00:26.649Z,7.10
2019-03-27T01:02:55.923Z,8.00
2019-03-27T01:05:25.200Z,5.75
2019-03-27T01:07:55.092Z,6.25
2019-03-27T01:10:24.571Z,4.45
2019-03-27T01:12:54.161Z,8.78
2019-03-27T01:15:23.495Z,5.80
2019-03-27T01:17:52.895Z,5.20
2019-03-27T01:20:22.453Z,5.47
2019-03-27T01:22:51.853Z,3.85
2019-03-27T01:25:21.247Z,11.93
2019-03-27T01:55:38.323Z,5.15
2019-03-27T01:58:07.835Z,7.35
2019-03-27T02:00:37.338Z,5.50
2019-03-27T02:03:07.104Z,7.60
2019-03-27T02:05:36.463Z,5.20
2019-03-27T02:08:05.766Z,5.78
2019-03-27T02:10:35.283Z,8.58
2019-03-27T02:13:04.605Z,8.98
2019-03-27T02:15:34.194Z,5.75
2019-03-27T02:18:03.619Z,10.48
2019-03-27T02:20:32.942Z,8.65
2019-03-27T02:23:02.211Z,8.53
2019-03-27T02:25:31.975Z,7.80
2019-03-27T02:28:01.539Z,7.08
2019-03-27T02:30:31.104Z,10.65
2019-03-27T02:33:00.426Z,8.48
2019-03-27T02:35:29.787Z,8.58
2019-03-27T02:37:59.207Z,7.33
2019-03-27T02:40:28.466Z,8.43
2019-03-27T02:42:57.774Z,9.50
2019-03-27T02:45:27.625Z,6.97
2019-03-27T02:47:56.996Z,10.53
2019-03-27T02:50:26.425Z,9.15
2019-03-27T02:52:55.868Z,6.45
2019-03-27T02:55:25.383Z,9.25
2019-03-27T02:57:54.698Z,9.93
2019-03-27T03:00:24.124Z,8.03
2019-03-27T03:02:53.440Z,8.98
2019-03-27T03:05:22.746Z,7.08
2019-03-27T03:07:52.311Z,11.65
2019-03-27T03:10:21.777Z,7.40
2019-03-27T03:12:51.073Z,9.98
2019-03-27T03:15:23.948Z,6.58
2019-03-27T03:17:53.383Z,10.58
2019-03-27T03:20:22.828Z,11.68
2019-03-27T03:22:52.445Z,8.58
2019-03-27T03:25:21.874Z,11.78
2019-03-27T03:27:51.412Z,9.25
2019-03-27T03:30:20.873Z,8.88
2019-03-27T03:32:50.375Z,6.60
2019-03-27T03:35:19.853Z,7.55
2019-03-27T03:37:49.508Z,12.78
2019-03-27T03:40:19.163Z,9.93
2019-03-27T03:42:48.463Z,9.63
2019-03-27T03:45:18.020Z,9.18
2019-03-27T03:47:47.644Z,9.98
2019-03-27T03:50:37.478Z,10.25
2019-03-27T03:53:09.240Z,10.75
2019-03-27T03:55:39.581Z,8.83
2019-03-27T03:58:11.359Z,8.88
2019-03-27T04:00:40.977Z,11.73
2019-03-27T04:03:11.213Z,8.35
2019-03-27T04:05:41.142Z,8.60
2019-03-27T04:08:10.432Z,10.03
2019-03-27T04:10:39.899Z,8.63
2019-03-27T04:13:09.303Z,7.85
2019-03-27T04:15:38.605Z,8.75
2019-03-27T04:18:08.082Z,13.32
2019-03-27T04:20:37.485Z,14.38
2019-03-27T04:23:06.873Z,10.30
2019-03-27T04:26:06.914Z,10.18
2019-03-27T04:28:07.507Z,9.53
2019-03-27T04:30:37.072Z,9.60
2019-03-27T04:33:06.583Z,12.23
2019-03-27T04:35:36.699Z,10.60
2019-03-27T04:38:05.983Z,12.63
2019-03-27T04:40:35.295Z,13.00
2019-03-27T04:43:04.618Z,11.73
2019-03-27T04:45:34.207Z,9.60
2019-03-27T04:48:03.629Z,14.78
2019-03-27T04:50:32.984Z,15.20
2019-03-27T04:53:02.472Z,9.80
2019-03-27T04:55:31.896Z,13.68
2019-03-27T04:58:01.296Z,9.70
2019-03-27T05:00:30.886Z,9.78
2019-03-27T05:03:00.202Z,11.45
2019-03-27T05:05:29.486Z,11.78
2019-03-27T05:07:58.824Z,13.70
2019-03-27T05:10:28.161Z,15.78
2019-03-27T05:12:57.478Z,14.68
2019-03-27T05:15:26.817Z,16.00
2019-03-27T05:17:56.231Z,16.35
2019-03-27T05:20:28.674Z,16.62
2019-03-27T05:22:57.730Z,11.80
2019-03-27T05:25:27.069Z,8.65
2019-03-27T05:27:56.811Z,11.78
2019-03-27T05:30:28.484Z,9.38
2019-03-27T05:32:57.927Z,13.83
2019-03-27T05:35:27.290Z,13.05
2019-03-27T05:37:56.884Z,12.93
2019-03-27T05:40:26.405Z,17.60
2019-03-27T05:43:00.937Z,14.65
2019-03-27T05:45:27.293Z,18.10
2019-03-27T05:47:59.934Z,20.65
2019-03-27T05:50:27.996Z,15.50
2019-03-27T05:52:57.312Z,19.52
2019-03-27T05:55:26.795Z,19.23
2019-03-27T05:57:57.580Z,17.90
2019-03-27T06:00:26.970Z,21.10
2019-03-27T06:02:56.406Z,19.55
2019-03-27T06:05:25.753Z,20.40
2019-03-27T06:07:55.162Z,18.82
2019-03-27T06:10:24.494Z,18.52
2019-03-27T06:12:54.050Z,18.87
2019-03-27T06:15:23.566Z,20.27
2019-03-27T06:17:53.386Z,19.80
2019-03-27T06:20:22.767Z,18.05
2019-03-27T06:22:52.079Z,19.37
2019-03-27T06:25:21.610Z,18.45
2019-03-27T06:27:51.191Z,22.80
2019-03-27T06:30:20.581Z,19.77
2019-03-27T06:32:49.989Z,19.37
2019-03-27T06:35:20.279Z,21.45
2019-03-27T06:37:50.026Z,22.32
2019-03-27T06:40:19.449Z,21.55
2019-03-27T06:42:48.756Z,20.43
2019-03-27T06:45:18.152Z,18.12
2019-03-27T06:47:47.757Z,17.42
2019-03-27T06:50:17.234Z,15.10
2019-03-27T06:52:46.546Z,18.25
2019-03-27T06:55:15.963Z,14.65
2019-03-27T06:57:45.476Z,15.30
2019-03-27T07:00:15.265Z,15.08
2019-03-27T07:02:44.639Z,14.30
2019-03-27T07:05:14.323Z,15.53
2019-03-27T07:07:43.719Z,15.95
2019-03-27T07:10:13.320Z,16.05
2019-03-27T07:12:43.143Z,21.00
2019-03-27T07:15:12.822Z,18.67
2019-03-27T07:17:42.218Z,20.52
2019-03-27T07:20:12.100Z,17.02
2019-03-27T07:22:41.495Z,18.73
2019-03-27T07:25:11.217Z,19.82
2019-03-27T07:27:41.353Z,17.82
2019-03-27T07:30:12.044Z,19.70
2019-03-27T07:32:41.569Z,17.12
2019-03-27T07:35:11.015Z,13.45
2019-03-27T07:37:40.606Z,19.23
2019-03-27T07:40:10.296Z,20.48
2019-03-27T07:42:39.948Z,16.15
2019-03-27T07:45:09.971Z,22.75
2019-03-27T07:47:39.292Z,17.37
2019-03-27T07:50:09.173Z,12.63
2019-03-27T07:52:38.580Z,16.82
2019-03-27T07:55:18.694Z,16.25
2019-03-27T07:57:39.284Z,13.53
2019-03-27T08:00:11.459Z,16.85
2019-03-27T08:02:40.798Z,12.40
2019-03-27T08:05:10.612Z,11.85
2019-03-27T08:07:40.230Z,12.78
2019-03-27T08:10:09.809Z,12.58
2019-03-27T08:12:39.190Z,13.13
2019-03-27T08:15:09.375Z,11.63
2019-03-27T08:17:38.688Z,12.58
2019-03-27T08:20:08.584Z,11.57
2019-03-27T08:22:38.089Z,11.40
2019-03-27T08:25:07.782Z,12.05
2019-03-27T08:27:37.088Z,15.58
2019-03-27T08:30:09.386Z,11.22
2019-03-27T08:32:39.454Z,11.57
2019-03-27T08:35:09.106Z,13.13
2019-03-27T08:37:38.473Z,17.98
2019-03-27T08:40:09.259Z,14.58
2019-03-27T08:42:38.703Z,14.10
2019-03-27T08:45:08.347Z,14.13
2019-03-27T08:47:37.620Z,11.08
2019-03-27T08:50:07.796Z,20.43
2019-03-27T08:52:37.571Z,17.45
2019-03-27T08:55:07.982Z,16.27
2019-03-27T08:57:37.400Z,15.58
2019-03-27T09:00:08.913Z,12.25
2019-03-27T09:02:38.253Z,14.43
2019-03-27T09:05:08.271Z,14.10
2019-03-27T09:07:37.908Z,14.80
2019-03-27T09:10:08.544Z,12.23
2019-03-27T09:12:38.075Z,11.60
2019-03-27T09:15:09.447Z,10.15
2019-03-27T09:17:38.862Z,13.22
2019-03-27T09:20:08.866Z,17.42
2019-03-27T09:22:38.484Z,13.22
2019-03-27T09:25:07.863Z,12.15
2019-03-27T09:27:37.292Z,14.28
2019-03-27T09:30:08.317Z,15.08
2019-03-27T09:32:37.628Z,10.98
2019-03-27T09:35:07.808Z,10.95
2019-03-27T09:37:37.341Z,10.20
2019-03-27T09:40:06.909Z,10.48
2019-03-27T09:42:36.262Z,14.10
2019-03-27T09:45:06.933Z,12.70
2019-03-27T09:47:36.232Z,9.68
2019-03-27T09:50:05.860Z,15.03
2019-03-27T09:52:35.160Z,10.28
2019-03-27T09:55:04.990Z,7.00
2019-03-27T09:57:34.362Z,11.03
2019-03-27T10:00:04.886Z,9.08
2019-03-27T10:02:34.477Z,9.58
2019-03-27T10:05:03.970Z,10.05
2019-03-27T10:07:33.222Z,7.15
2019-03-27T10:10:02.590Z,11.22
2019-03-27T10:12:31.904Z,10.82
2019-03-27T10:15:01.206Z,8.30
2019-03-27T10:17:30.768Z,12.10
2019-03-27T10:20:03.665Z,6.97
2019-03-27T10:22:31.292Z,7.53
2019-03-27T10:25:00.664Z,8.28
2019-03-27T10:27:30.040Z,9.33
2019-03-27T10:29:59.390Z,9.70
2019-03-27T10:32:28.737Z,11.12
2019-03-27T10:34:58.111Z,8.23
2019-03-27T10:37:27.520Z,12.15
2019-03-27T10:39:56.836Z,9.65
2019-03-27T10:42:26.222Z,9.40
2019-03-27T10:44:55.845Z,5.83
2019-03-27T10:47:25.123Z,11.70
2019-03-27T10:49:54.490Z,5.90
2019-03-27T10:52:23.810Z,7.50
2019-03-27T10:54:53.145Z,5.53
2019-03-27T10:57:22.514Z,6.00
2019-03-27T10:59:51.819Z,8.50
2019-03-27T11:02:21.271Z,6.45
2019-03-27T11:04:50.623Z,6.15
2019-03-27T11:07:20.169Z,6.65
2019-03-27T11:09:49.477Z,4.60
2019-03-27T11:12:18.803Z,6.12
2019-03-27T11:14:48.144Z,5.90
2019-03-27T11:17:17.484Z,4.92
2019-03-27T11:19:46.767Z,9.25
2019-03-27T11:22:16.159Z,5.35
2019-03-27T11:24:45.746Z,7.78
2019-03-27T11:27:15.127Z,10.30
2019-03-27T11:29:44.532Z,5.60
2019-03-27T11:32:13.902Z,8.03
2019-03-27T11:34:43.207Z,5.70
2019-03-27T11:37:12.519Z,6.15
2019-03-27T11:39:41.856Z,6.50
2019-03-27T11:42:11.467Z,6.03
2019-03-27T11:44:41.246Z,6.28
2019-03-27T11:47:10.907Z,5.97
2019-03-27T11:49:40.473Z,7.47
2019-03-27T11:52:09.843Z,5.95
2019-03-27T11:54:39.158Z,4.95
2019-03-27T11:57:08.498Z,4.60
2019-03-27T11:59:38.056Z,7.72
2019-03-27T12:02:07.438Z,8.08
2019-03-27T12:04:36.863Z,9.53
2019-03-27T12:07:06.179Z,8.83
2019-03-27T12:09:35.507Z,6.50
2019-03-27T12:12:05.281Z,8.35
2019-03-27T12:14:34.772Z,7.65
2019-03-27T12:17:04.265Z,8.20
2019-03-27T12:19:33.753Z,7.90
2019-03-27T12:22:03.220Z,9.65
2019-03-27T12:24:32.687Z,7.00
2019-03-27T12:27:02.167Z,9.45
2019-03-27T12:29:31.597Z,8.10
2019-03-27T12:32:01.480Z,8.95
2019-03-27T12:34:30.809Z,12.70
2019-03-27T12:37:00.171Z,9.53
2019-03-27T12:39:29.705Z,8.75
2019-03-27T12:41:59.172Z,9.38
2019-03-27T12:44:28.697Z,9.68
2019-03-27T12:46:58.420Z,9.08
2019-03-27T12:49:35.666Z,9.20
2019-03-27T12:52:05.691Z,8.55
2019-03-27T12:54:35.148Z,9.68
2019-03-27T12:57:05.031Z,11.95
2019-03-27T12:59:34.756Z,9.10
2019-03-27T13:02:04.478Z,11.93
2019-03-27T13:04:34.099Z,8.85
2019-03-27T13:07:03.547Z,10.80
2019-03-27T13:09:33.102Z,8.88
2019-03-27T13:12:03.880Z,9.23
2019-03-27T13:14:33.258Z,10.68
2019-03-27T13:17:02.598Z,10.90
2019-03-27T13:19:32.212Z,11.05
2019-03-27T13:22:01.674Z,13.48
2019-03-27T13:24:31.315Z,11.35
2019-03-27T13:27:00.992Z,8.83
2019-03-27T13:29:30.358Z,9.55
2019-03-27T13:31:59.795Z,9.80
2019-03-27T13:34:29.301Z,9.13
2019-03-27T13:36:58.660Z,10.40
2019-03-27T13:39:27.974Z,8.45
2019-03-27T13:41:57.540Z,13.40
2019-03-27T13:44:36.766Z,12.40
2019-03-27T13:46:58.096Z,12.18
2019-03-27T13:49:27.495Z,11.63
2019-03-27T13:51:58.007Z,12.47
2019-03-27T13:54:27.386Z,10.30
2019-03-27T13:56:56.818Z,12.80
2019-03-27T13:59:26.268Z,13.65
2019-03-27T14:01:55.661Z,11.03
2019-03-27T14:04:25.414Z,11.55
2019-03-27T14:06:54.827Z,11.48
2019-03-27T14:09:24.240Z,12.50
2019-03-27T14:11:53.659Z,11.35
2019-03-27T14:14:23.343Z,12.13
2019-03-27T14:16:52.882Z,13.80
2019-03-27T14:19:22.231Z,11.55
2019-03-27T14:21:54.921Z,12.28
2019-03-27T14:24:23.186Z,11.68
2019-03-27T14:26:52.592Z,10.10
2019-03-27T14:29:22.298Z,13.25
2019-03-27T14:31:51.990Z,9.53
2019-03-27T14:34:21.283Z,14.43
2019-03-27T14:36:50.667Z,10.38
2019-03-27T14:39:20.358Z,12.78
2019-03-27T14:41:49.750Z,12.95
2019-03-27T14:44:19.128Z,10.25
2019-03-27T14:46:48.808Z,10.20
2019-03-27T14:49:18.291Z,14.28
2019-03-27T14:51:47.603Z,14.10
2019-03-27T14:54:16.934Z,9.43
2019-03-27T14:56:46.445Z,10.82
2019-03-27T14:59:15.765Z,15.98
2019-03-27T15:01:45.422Z,13.78
2019-03-27T15:04:14.922Z,15.00
2019-03-27T15:06:45.923Z,14.95
2019-03-27T15:09:15.255Z,12.85
2019-03-27T15:11:44.699Z,11.80
2019-03-27T15:14:14.019Z,13.05
2019-03-27T15:16:43.325Z,13.38
2019-03-27T15:19:12.939Z,14.63
2019-03-27T15:21:42.495Z,14.45
2019-03-27T15:24:11.884Z,14.75
2019-03-27T15:26:41.262Z,11.83
2019-03-27T15:29:10.570Z,14.98
2019-03-27T15:31:40.142Z,14.85
2019-03-27T15:34:09.452Z,15.05
2019-03-27T15:36:38.804Z,15.30
2019-03-27T15:39:09.683Z,15.05
2019-03-27T15:41:39.224Z,15.23
2019-03-27T15:44:08.774Z,18.90
2019-03-27T15:46:38.418Z,15.15
2019-03-27T15:49:07.794Z,14.00
2019-03-27T15:51:37.237Z,13.70
2019-03-27T15:54:06.604Z,16.55
2019-03-27T15:56:38.511Z,17.65
2019-03-27T15:59:06.992Z,13.88
2019-03-27T16:01:36.439Z,13.80
2019-03-27T16:04:05.756Z,16.57
2019-03-27T16:06:35.082Z,15.13
2019-03-27T16:09:07.163Z,14.30
2019-03-27T16:11:36.743Z,11.55
2019-03-27T16:14:06.085Z,12.47
2019-03-27T16:16:35.479Z,11.33
2019-03-27T16:19:04.846Z,15.63
2019-03-27T16:21:37.557Z,14.60
2019-03-27T16:24:06.815Z,10.82
2019-03-27T16:26:36.283Z,11.28
2019-03-27T16:29:05.772Z,14.38
2019-03-27T16:31:35.090Z,14.55
2019-03-27T16:34:04.513Z,12.10
2019-03-27T16:36:33.907Z,12.45
2019-03-27T16:39:03.276Z,13.78
2019-03-27T16:41:32.667Z,13.60
2019-03-27T16:44:02.076Z,15.98
2019-03-27T16:46:31.552Z,11.38
2019-03-27T16:49:01.023Z,12.98
2019-03-27T16:51:30.377Z,12.53
2019-03-27T16:54:00.270Z,14.60
2019-03-27T16:56:29.599Z,13.48
2019-03-27T16:58:59.010Z,13.15
2019-03-27T17:01:28.696Z,13.20
2019-03-27T17:03:58.261Z,12.80
2019-03-27T17:06:27.929Z,13.53
2019-03-27T17:08:57.378Z,16.75
2019-03-27T17:11:26.783Z,14.35
2019-03-27T17:13:56.559Z,21.85
2019-03-27T17:16:26.099Z,15.08
2019-03-27T17:18:55.414Z,12.85
2019-03-27T17:21:24.803Z,13.95
2019-03-27T17:23:54.363Z,13.58
2019-03-27T17:26:23.673Z,14.65
2019-03-27T17:28:53.308Z,13.68
2019-03-27T17:31:22.592Z,13.83
2019-03-27T17:33:52.166Z,13.90
2019-03-27T17:36:21.832Z,15.60
2019-03-27T17:38:51.134Z,15.00
2019-03-27T17:41:20.451Z,12.90
2019-03-27T17:43:49.813Z,13.83
2019-03-27T17:46:19.347Z,13.43
2019-03-27T17:48:48.708Z,16.60
2019-03-27T17:51:18.148Z,15.10
2019-03-27T17:53:47.481Z,13.95
2019-03-27T17:56:16.940Z,12.33
2019-03-27T17:58:46.279Z,13.22
2019-03-27T18:01:15.647Z,15.25
2019-03-27T18:03:45.057Z,14.33
2019-03-27T18:06:14.486Z,15.05
2019-03-27T18:08:43.810Z,14.78
2019-03-27T18:11:13.292Z,15.30
2019-03-27T18:13:42.618Z,13.75
2019-03-27T18:16:12.032Z,15.03
2019-03-27T18:18:41.599Z,13.62
2019-03-27T18:21:10.978Z,15.80
2019-03-27T18:23:46.162Z,13.93
2019-03-27T18:26:11.411Z,13.95
2019-03-27T18:28:41.098Z,13.83
2019-03-27T18:31:10.696Z,14.68
2019-03-27T18:33:40.046Z,15.70
2019-03-27T18:36:09.466Z,14.95
2019-03-27T18:38:39.319Z,13.88
2019-03-27T18:41:08.631Z,14.83
2019-03-27T18:43:37.985Z,13.58
2019-03-27T18:46:07.856Z,12.78
2019-03-27T18:48:37.564Z,16.12
2019-03-27T18:51:07.344Z,15.50
2019-03-27T18:53:36.779Z,14.63
2019-03-27T18:56:06.275Z,13.38
2019-03-27T18:58:35.985Z,17.57
2019-03-27T19:01:05.671Z,17.02
2019-03-27T19:03:35.014Z,14.78
2019-03-27T19:06:04.410Z,16.42
2019-03-27T19:08:33.745Z,15.72
2019-03-27T19:11:03.278Z,14.90
2019-03-27T19:13:33.427Z,13.00
2019-03-27T19:16:05.321Z,13.93
2019-03-27T19:18:35.174Z,16.00
2019-03-27T19:21:04.621Z,16.32
2019-03-27T19:23:37.367Z,13.98
2019-03-27T19:26:07.106Z,16.67
2019-03-27T19:28:36.531Z,16.10
2019-03-27T19:31:06.583Z,15.23
2019-03-27T19:33:36.233Z,19.75
2019-03-27T19:36:06.370Z,16.55
2019-03-27T19:38:35.879Z,14.43
2019-03-27T19:41:05.397Z,14.58
2019-03-27T19:43:34.836Z,13.58
2019-03-27T19:46:04.618Z,17.57
2019-03-27T19:48:34.218Z,14.65
2019-03-27T19:51:03.887Z,14.05
2019-03-27T19:53:33.449Z,12.90
2019-03-27T19:56:03.211Z,16.97
2019-03-27T19:58:32.592Z,13.60
2019-03-27T20:01:01.916Z,13.18
2019-03-27T20:03:34.484Z,16.12
2019-03-27T20:06:02.510Z,12.55
2019-03-27T20:08:31.920Z,16.10
2019-03-27T20:11:01.242Z,14.15
2019-03-27T20:13:30.731Z,11.97
2019-03-27T20:16:00.307Z,12.75
2019-03-27T20:18:29.635Z,13.10
2019-03-27T20:20:59.060Z,15.80
2019-03-27T20:23:28.569Z,14.25
2019-03-27T20:25:57.879Z,15.55
2019-03-27T20:28:27.496Z,14.68
2019-03-27T20:30:56.886Z,10.58
2019-03-27T20:33:26.176Z,12.50
2019-03-27T20:35:55.549Z,13.05
2019-03-27T20:38:25.046Z,13.38
2019-03-27T20:40:54.683Z,12.18
2019-03-27T20:43:24.132Z,13.18
2019-03-27T20:45:53.581Z,15.65
2019-03-27T20:48:23.267Z,13.78
2019-03-27T20:50:52.701Z,14.47
2019-03-27T20:53:22.323Z,19.55
2019-03-27T20:55:52.304Z,15.13
2019-03-27T20:58:21.763Z,14.70
2019-03-27T21:00:51.043Z,14.03
2019-03-27T21:03:20.345Z,13.05
2019-03-27T21:05:49.704Z,14.65
2019-03-27T21:08:19.090Z,14.83
2019-03-27T21:10:48.500Z,14.23
2019-03-27T21:13:17.959Z,17.85
2019-03-27T21:15:47.343Z,13.40
2019-03-27T21:18:17.110Z,15.88
2019-03-27T21:20:46.943Z,15.45
2019-03-27T21:23:16.764Z,19.00
2019-03-27T21:25:46.860Z,15.18
2019-03-27T21:28:16.218Z,16.97
2019-03-27T21:30:45.532Z,17.98
2019-03-27T21:33:15.051Z,16.90
2019-03-27T21:35:44.416Z,17.37
2019-03-27T21:38:14.310Z,20.50
2019-03-27T21:40:43.692Z,17.42
2019-03-27T21:43:13.255Z,17.35
2019-03-27T21:45:42.536Z,22.58
2019-03-27T21:48:12.044Z,19.80
2019-03-27T21:50:41.381Z,18.73
2019-03-27T21:53:10.689Z,20.20
2019-03-27T21:55:42.962Z,19.85
2019-03-27T21:58:11.116Z,19.57
2019-03-27T22:00:41.540Z,20.27
2019-03-27T22:03:11.037Z,17.12
2019-03-27T22:05:40.498Z,18.60
2019-03-27T22:08:09.960Z,19.87
2019-03-27T22:10:39.393Z,19.00
2019-03-27T22:13:08.733Z,24.47
2019-03-27T22:15:38.087Z,17.60
2019-03-27T22:18:08.183Z,19.00
2019-03-27T22:20:39.607Z,16.73
2019-03-27T22:23:09.165Z,19.80
2019-03-27T22:25:38.537Z,21.15
2019-03-27T22:28:08.160Z,19.20
2019-03-27T22:30:37.488Z,19.82
2019-03-27T22:33:06.919Z,21.87
2019-03-27T22:35:36.504Z,20.10
2019-03-27T22:38:05.891Z,21.45
2019-03-27T22:40:35.462Z,19.77
2019-03-27T22:43:05.000Z,20.68
2019-03-27T22:45:34.700Z,21.55
2019-03-27T22:48:04.521Z,22.48
2019-03-27T22:50:34.017Z,21.42
2019-03-27T22:53:03.605Z,22.25
2019-03-27T22:55:32.920Z,17.42
2019-03-27T22:58:02.476Z,18.02
2019-03-27T23:00:45.363Z,19.30
2019-03-27T23:03:18.530Z,18.65
2019-03-27T23:05:46.837Z,19.10
2019-03-27T23:08:16.178Z,25.20
2019-03-27T23:10:46.028Z,20.72
2019-03-27T23:13:15.410Z,23.35
2019-03-27T23:15:45.111Z,18.12
2019-03-27T23:18:14.412Z,21.15
2019-03-27T23:20:43.715Z,21.77
2019-03-27T23:23:13.034Z,18.40
2019-03-27T23:25:42.367Z,20.25
2019-03-27T23:28:11.695Z,21.05
2019-03-27T23:30:41.036Z,21.27
2019-03-27T23:33:10.438Z,18.75
2019-03-27T23:35:40.307Z,20.88
2019-03-27T23:38:09.688Z,21.33
2019-03-27T23:40:39.341Z,18.62
2019-03-27T23:43:08.830Z,20.08
2019-03-27T23:45:38.375Z,19.20
2019-03-27T23:48:07.650Z,25.50
2019-03-27T23:50:36.942Z,14.73
2019-03-27T23:53:06.279Z,18.10
2019-03-27T23:55:35.956Z,16.90
2019-03-27T23:58:05.267Z,18.98
